sensor_id;sensor_type;location;lat;lon;timestamp;temperature;humidity
43338;DHT22;28933;52.492;13.434;2022-10-26T00:01:31;12.90;99.90
43338;DHT22;28933;52.492;13.434;2022-10-26T00:03:57;12.90;99.90
43338;DHT22;28933;52.492;13.434;2022-10-26T00:06:24;13.00;99.90
43338;DHT22;28933;52.492;13.434;2022-10-26T00:08:55;13.00;99.90
43338;DHT22;28933;52.492;13.434;2022-10-26T00:11:21;12.90;99.90
43338;DHT22;28933;52.492;13.434;2022-10-26T00:13:47;12.90;99.90
43338;DHT22;28933;52.492;13.434;2022-10-26T00:16:23;12.90;99.90
43338;DHT22;28933;52.492;13.434;2022-10-26T00:18:49;13.00;99.90
43338;DHT22;28933;52.492;13.434;2022-10-26T00:21:16;12.90;99.90
43338;DHT22;28933;52.492;13.434;2022-10-26T00:23:42;12.90;99.90
43338;DHT22;28933;52.492;13.434;2022-10-26T00:26:08;12.90;99.90
43338;DHT22;28933;52.492;13.434;2022-10-26T00:28:34;12.80;99.90
43338;DHT22;28933;52.492;13.434;2022-10-26T00:31:01;12.80;99.90
43338;DHT22;28933;52.492;13.434;2022-10-26T00:33:27;12.80;99.90
43338;DHT22;28933;52.492;13.434;2022-10-26T00:35:54;12.80;99.90
43338;DHT22;28933;52.492;13.434;2022-10-26T00:38:20;12.80;99.90
43338;DHT22;28933;52.492;13.434;2022-10-26T00:40:45;12.80;99.90
43338;DHT22;28933;52.492;13.434;2022-10-26T00:43:35;12.80;99.90
43338;DHT22;28933;52.492;13.434;2022-10-26T00:46:02;12.80;99.90
43338;DHT22;28933;52.492;13.434;2022-10-26T00:48:42;12.80;99.90
43338;DHT22;28933;52.492;13.434;2022-10-26T00:51:12;12.70;99.90
43338;DHT22;28933;52.492;13.434;2022-10-26T00:53:40;12.70;99.90
43338;DHT22;28933;52.492;13.434;2022-10-26T00:56:06;12.70;99.90
43338;DHT22;28933;52.492;13.434;2022-10-26T00:58:35;12.70;99.90
43338;DHT22;28933;52.492;13.434;2022-10-26T01:01:01;12.70;99.90
43338;DHT22;28933;52.492;13.434;2022-10-26T01:03:28;12.70;99.90
43338;DHT22;28933;52.492;13.434;2022-10-26T01:05:57;12.60;99.90
43338;DHT22;28933;52.492;13.434;2022-10-26T01:08:24;12.60;99.90
43338;DHT22;28933;52.492;13.434;2022-10-26T01:10:50;12.60;99.90
43338;DHT22;28933;52.492;13.434;2022-10-26T01:13:17;12.60;99.90
43338;DHT22;28933;52.492;13.434;2022-10-26T01:22:08;12.50;99.90
43338;DHT22;28933;52.492;13.434;2022-10-26T01:24:57;12.50;99.90
43338;DHT22;28933;52.492;13.434;2022-10-26T01:27:37;12.50;99.90
43338;DHT22;28933;52.492;13.434;2022-10-26T01:30:19;12.40;99.90
43338;DHT22;28933;52.492;13.434;2022-10-26T01:33:08;12.30;99.90
43338;DHT22;28933;52.492;13.434;2022-10-26T01:41:00;12.30;99.90
43338;DHT22;28933;52.492;13.434;2022-10-26T01:43:32;12.30;99.90
43338;DHT22;28933;52.492;13.434;2022-10-26T01:46:00;12.30;99.90
43338;DHT22;28933;52.492;13.434;2022-10-26T01:48:29;12.30;99.90
43338;DHT22;28933;52.492;13.434;2022-10-26T01:50:56;12.20;99.90
43338;DHT22;28933;52.492;13.434;2022-10-26T01:53:25;12.20;99.90
43338;DHT22;28933;52.492;13.434;2022-10-26T01:55:52;12.20;99.90
43338;DHT22;28933;52.492;13.434;2022-10-26T02:00:57;12.10;99.90
43338;DHT22;28933;52.492;13.434;2022-10-26T02:03:36;12.10;99.90
43338;DHT22;28933;52.492;13.434;2022-10-26T02:06:39;12.10;99.90
43338;DHT22;28933;52.492;13.434;2022-10-26T02:11:45;12.10;99.90
43338;DHT22;28933;52.492;13.434;2022-10-26T02:14:49;12.00;99.90
43338;DHT22;28933;52.492;13.434;2022-10-26T02:20:03;12.00;99.90
43338;DHT22;28933;52.492;13.434;2022-10-26T02:22:37;12.00;99.90
43338;DHT22;28933;52.492;13.434;2022-10-26T02:25:33;12.00;99.90
43338;DHT22;28933;52.492;13.434;2022-10-26T02:28:07;12.00;99.90
43338;DHT22;28933;52.492;13.434;2022-10-26T02:30:34;11.90;99.90
43338;DHT22;28933;52.492;13.434;2022-10-26T02:33:02;11.90;99.90
43338;DHT22;28933;52.492;13.434;2022-10-26T02:35:31;11.90;99.90
43338;DHT22;28933;52.492;13.434;2022-10-26T02:38:00;11.90;99.90
43338;DHT22;28933;52.492;13.434;2022-10-26T02:40:27;11.90;99.90
43338;DHT22;28933;52.492;13.434;2022-10-26T02:42:55;11.90;99.90
43338;DHT22;28933;52.492;13.434;2022-10-26T02:45:25;11.90;99.90
43338;DHT22;28933;52.492;13.434;2022-10-26T02:47:53;11.90;99.90
43338;DHT22;28933;52.492;13.434;2022-10-26T02:50:25;11.90;99.90
43338;DHT22;28933;52.492;13.434;2022-10-26T02:55:27;11.90;99.90
43338;DHT22;28933;52.492;13.434;2022-10-26T02:57:59;11.80;99.90
43338;DHT22;28933;52.492;13.434;2022-10-26T03:00:28;11.80;99.90
43338;DHT22;28933;52.492;13.434;2022-10-26T03:02:57;11.80;99.90
43338;DHT22;28933;52.492;13.434;2022-10-26T03:05:26;11.80;99.90
43338;DHT22;28933;52.492;13.434;2022-10-26T03:07:52;11.80;99.90
43338;DHT22;28933;52.492;13.434;2022-10-26T03:10:19;11.70;99.90
43338;DHT22;28933;52.492;13.434;2022-10-26T03:12:44;11.70;99.90
43338;DHT22;28933;52.492;13.434;2022-10-26T03:15:10;11.70;99.90
43338;DHT22;28933;52.492;13.434;2022-10-26T03:17:36;11.70;99.90
43338;DHT22;28933;52.492;13.434;2022-10-26T03:20:02;11.70;99.90
43338;DHT22;28933;52.492;13.434;2022-10-26T03:22:27;11.70;99.90
43338;DHT22;28933;52.492;13.434;2022-10-26T03:24:53;11.70;99.90
43338;DHT22;28933;52.492;13.434;2022-10-26T03:27:18;11.70;99.90
43338;DHT22;28933;52.492;13.434;2022-10-26T03:29:44;11.80;99.90
43338;DHT22;28933;52.492;13.434;2022-10-26T03:32:09;11.70;99.90
43338;DHT22;28933;52.492;13.434;2022-10-26T03:34:35;11.70;99.90
43338;DHT22;28933;52.492;13.434;2022-10-26T03:37:01;11.70;99.90
43338;DHT22;28933;52.492;13.434;2022-10-26T03:39:26;11.70;99.90
43338;DHT22;28933;52.492;13.434;2022-10-26T03:41:52;11.70;99.90
43338;DHT22;28933;52.492;13.434;2022-10-26T03:44:18;11.70;99.90
43338;DHT22;28933;52.492;13.434;2022-10-26T03:46:44;11.70;99.90
43338;DHT22;28933;52.492;13.434;2022-10-26T03:49:10;11.70;99.90
43338;DHT22;28933;52.492;13.434;2022-10-26T03:51:35;11.70;99.90
43338;DHT22;28933;52.492;13.434;2022-10-26T03:54:02;11.70;99.90
43338;DHT22;28933;52.492;13.434;2022-10-26T03:56:27;11.70;99.90
43338;DHT22;28933;52.492;13.434;2022-10-26T03:58:53;11.70;99.90
43338;DHT22;28933;52.492;13.434;2022-10-26T04:01:18;11.70;99.90
43338;DHT22;28933;52.492;13.434;2022-10-26T04:03:44;11.60;99.90
43338;DHT22;28933;52.492;13.434;2022-10-26T04:06:10;11.60;99.90
43338;DHT22;28933;52.492;13.434;2022-10-26T04:08:36;11.60;99.90
43338;DHT22;28933;52.492;13.434;2022-10-26T04:11:02;11.60;99.90
43338;DHT22;28933;52.492;13.434;2022-10-26T04:13:28;11.60;99.90
43338;DHT22;28933;52.492;13.434;2022-10-26T04:15:54;11.60;99.90
43338;DHT22;28933;52.492;13.434;2022-10-26T04:18:19;11.60;99.90
43338;DHT22;28933;52.492;13.434;2022-10-26T04:20:45;11.60;99.90
43338;DHT22;28933;52.492;13.434;2022-10-26T04:23:13;11.60;99.90
43338;DHT22;28933;52.492;13.434;2022-10-26T04:25:38;11.60;99.90
43338;DHT22;28933;52.492;13.434;2022-10-26T04:28:05;11.60;99.90
43338;DHT22;28933;52.492;13.434;2022-10-26T04:30:31;11.60;99.90
43338;DHT22;28933;52.492;13.434;2022-10-26T04:32:57;11.60;99.90
43338;DHT22;28933;52.492;13.434;2022-10-26T04:35:23;11.60;99.90
43338;DHT22;28933;52.492;13.434;2022-10-26T04:37:49;11.50;99.90
43338;DHT22;28933;52.492;13.434;2022-10-26T04:40:15;11.50;99.90
43338;DHT22;28933;52.492;13.434;2022-10-26T04:42:45;11.50;99.90
43338;DHT22;28933;52.492;13.434;2022-10-26T04:45:12;11.50;99.90
43338;DHT22;28933;52.492;13.434;2022-10-26T04:47:38;11.50;99.90
43338;DHT22;28933;52.492;13.434;2022-10-26T04:50:05;11.50;99.90
43338;DHT22;28933;52.492;13.434;2022-10-26T04:52:31;11.50;99.90
43338;DHT22;28933;52.492;13.434;2022-10-26T04:54:57;11.50;99.90
43338;DHT22;28933;52.492;13.434;2022-10-26T04:57:22;11.50;99.90
43338;DHT22;28933;52.492;13.434;2022-10-26T04:59:48;11.50;99.90
43338;DHT22;28933;52.492;13.434;2022-10-26T05:02:14;11.50;99.90
43338;DHT22;28933;52.492;13.434;2022-10-26T05:04:39;11.50;99.90
43338;DHT22;28933;52.492;13.434;2022-10-26T05:07:06;11.50;99.90
43338;DHT22;28933;52.492;13.434;2022-10-26T05:09:32;11.50;99.90
43338;DHT22;28933;52.492;13.434;2022-10-26T05:11:57;11.40;99.90
43338;DHT22;28933;52.492;13.434;2022-10-26T05:14:23;11.40;99.90
43338;DHT22;28933;52.492;13.434;2022-10-26T05:16:50;11.50;99.90
43338;DHT22;28933;52.492;13.434;2022-10-26T05:19:16;11.40;99.90
43338;DHT22;28933;52.492;13.434;2022-10-26T05:21:41;11.40;99.90
43338;DHT22;28933;52.492;13.434;2022-10-26T05:24:07;11.40;99.90
43338;DHT22;28933;52.492;13.434;2022-10-26T05:26:32;11.30;99.90
43338;DHT22;28933;52.492;13.434;2022-10-26T05:28:58;11.30;99.90
43338;DHT22;28933;52.492;13.434;2022-10-26T05:31:23;11.30;99.90
43338;DHT22;28933;52.492;13.434;2022-10-26T05:33:50;11.30;99.90
43338;DHT22;28933;52.492;13.434;2022-10-26T05:36:18;11.20;99.90
43338;DHT22;28933;52.492;13.434;2022-10-26T05:38:44;11.20;99.90
43338;DHT22;28933;52.492;13.434;2022-10-26T05:41:10;11.20;99.90
43338;DHT22;28933;52.492;13.434;2022-10-26T05:43:37;11.10;99.90
43338;DHT22;28933;52.492;13.434;2022-10-26T05:46:02;11.10;99.90
43338;DHT22;28933;52.492;13.434;2022-10-26T05:48:29;11.10;99.90
43338;DHT22;28933;52.492;13.434;2022-10-26T05:51:09;11.10;99.90
43338;DHT22;28933;52.492;13.434;2022-10-26T05:53:37;11.00;99.90
43338;DHT22;28933;52.492;13.434;2022-10-26T05:56:09;11.00;99.90
43338;DHT22;28933;52.492;13.434;2022-10-26T05:58:37;11.00;99.90
43338;DHT22;28933;52.492;13.434;2022-10-26T06:01:34;10.90;99.90
43338;DHT22;28933;52.492;13.434;2022-10-26T06:04:27;10.90;99.90
43338;DHT22;28933;52.492;13.434;2022-10-26T06:06:54;10.80;99.90
43338;DHT22;28933;52.492;13.434;2022-10-26T06:09:21;10.80;99.90
43338;DHT22;28933;52.492;13.434;2022-10-26T06:11:47;10.80;99.90
43338;DHT22;28933;52.492;13.434;2022-10-26T06:14:13;10.80;99.90
43338;DHT22;28933;52.492;13.434;2022-10-26T06:17:00;10.70;99.90
43338;DHT22;28933;52.492;13.434;2022-10-26T06:19:51;10.70;99.90
43338;DHT22;28933;52.492;13.434;2022-10-26T06:28:23;10.80;99.90
43338;DHT22;28933;52.492;13.434;2022-10-26T06:30:52;10.70;99.90
43338;DHT22;28933;52.492;13.434;2022-10-26T06:33:18;10.70;99.90
43338;DHT22;28933;52.492;13.434;2022-10-26T06:35:54;10.70;99.90
43338;DHT22;28933;52.492;13.434;2022-10-26T06:38:24;10.70;99.90
43338;DHT22;28933;52.492;13.434;2022-10-26T06:40:54;10.70;99.90
43338;DHT22;28933;52.492;13.434;2022-10-26T06:43:29;10.70;99.90
43338;DHT22;28933;52.492;13.434;2022-10-26T06:46:21;10.70;99.90
43338;DHT22;28933;52.492;13.434;2022-10-26T06:48:55;10.70;99.90
43338;DHT22;28933;52.492;13.434;2022-10-26T06:51:24;10.70;99.90
43338;DHT22;28933;52.492;13.434;2022-10-26T06:54:11;10.70;99.90
43338;DHT22;28933;52.492;13.434;2022-10-26T06:56:38;10.70;99.90
43338;DHT22;28933;52.492;13.434;2022-10-26T06:59:14;10.70;99.90
43338;DHT22;28933;52.492;13.434;2022-10-26T07:01:40;10.80;99.90
43338;DHT22;28933;52.492;13.434;2022-10-26T07:04:06;10.80;99.90
43338;DHT22;28933;52.492;13.434;2022-10-26T07:06:32;10.80;99.90
43338;DHT22;28933;52.492;13.434;2022-10-26T07:09:00;10.80;99.90
43338;DHT22;28933;52.492;13.434;2022-10-26T07:11:26;10.90;99.90
43338;DHT22;28933;52.492;13.434;2022-10-26T07:13:52;10.90;99.90
43338;DHT22;28933;52.492;13.434;2022-10-26T07:16:19;10.90;99.90
43338;DHT22;28933;52.492;13.434;2022-10-26T07:18:46;10.90;99.90
43338;DHT22;28933;52.492;13.434;2022-10-26T07:21:12;11.00;99.90
43338;DHT22;28933;52.492;13.434;2022-10-26T07:23:39;11.10;99.90
43338;DHT22;28933;52.492;13.434;2022-10-26T07:26:04;11.10;99.90
43338;DHT22;28933;52.492;13.434;2022-10-26T07:28:30;11.10;99.90
43338;DHT22;28933;52.492;13.434;2022-10-26T07:30:57;11.10;99.90
43338;DHT22;28933;52.492;13.434;2022-10-26T07:33:23;11.20;99.90
43338;DHT22;28933;52.492;13.434;2022-10-26T07:35:49;11.20;99.90
43338;DHT22;28933;52.492;13.434;2022-10-26T07:38:14;11.20;99.90
43338;DHT22;28933;52.492;13.434;2022-10-26T07:40:40;11.30;99.90
43338;DHT22;28933;52.492;13.434;2022-10-26T07:43:05;11.20;99.90
43338;DHT22;28933;52.492;13.434;2022-10-26T07:45:31;11.30;99.90
43338;DHT22;28933;52.492;13.434;2022-10-26T07:47:57;11.30;99.90
43338;DHT22;28933;52.492;13.434;2022-10-26T07:50:22;11.40;99.90
43338;DHT22;28933;52.492;13.434;2022-10-26T07:52:48;11.40;99.90
43338;DHT22;28933;52.492;13.434;2022-10-26T07:55:14;11.40;99.90
43338;DHT22;28933;52.492;13.434;2022-10-26T07:57:40;11.40;99.90
43338;DHT22;28933;52.492;13.434;2022-10-26T08:00:07;11.50;99.90
43338;DHT22;28933;52.492;13.434;2022-10-26T08:02:33;11.50;99.90
43338;DHT22;28933;52.492;13.434;2022-10-26T08:04:59;11.60;99.90
43338;DHT22;28933;52.492;13.434;2022-10-26T08:07:25;11.60;99.90
43338;DHT22;28933;52.492;13.434;2022-10-26T08:09:51;11.70;99.90
43338;DHT22;28933;52.492;13.434;2022-10-26T08:12:18;11.70;99.90
43338;DHT22;28933;52.492;13.434;2022-10-26T08:14:44;11.80;99.90
43338;DHT22;28933;52.492;13.434;2022-10-26T08:17:09;11.80;99.90
43338;DHT22;28933;52.492;13.434;2022-10-26T08:19:35;11.90;99.90
43338;DHT22;28933;52.492;13.434;2022-10-26T08:22:01;11.90;99.90
43338;DHT22;28933;52.492;13.434;2022-10-26T08:24:26;12.00;99.90
43338;DHT22;28933;52.492;13.434;2022-10-26T08:26:53;12.00;99.90
43338;DHT22;28933;52.492;13.434;2022-10-26T08:29:18;12.10;99.90
43338;DHT22;28933;52.492;13.434;2022-10-26T08:31:46;12.20;99.90
43338;DHT22;28933;52.492;13.434;2022-10-26T08:34:12;12.20;99.90
43338;DHT22;28933;52.492;13.434;2022-10-26T08:36:38;12.30;99.90
43338;DHT22;28933;52.492;13.434;2022-10-26T08:39:04;12.30;99.90
43338;DHT22;28933;52.492;13.434;2022-10-26T08:41:40;12.40;99.90
43338;DHT22;28933;52.492;13.434;2022-10-26T08:44:29;12.40;99.90
43338;DHT22;28933;52.492;13.434;2022-10-26T08:47:22;12.50;99.90
43338;DHT22;28933;52.492;13.434;2022-10-26T08:50:03;12.60;99.90
43338;DHT22;28933;52.492;13.434;2022-10-26T08:52:43;12.60;99.90
43338;DHT22;28933;52.492;13.434;2022-10-26T08:55:16;12.70;99.90
43338;DHT22;28933;52.492;13.434;2022-10-26T08:57:44;12.70;99.90
43338;DHT22;28933;52.492;13.434;2022-10-26T09:00:21;12.80;99.90
43338;DHT22;28933;52.492;13.434;2022-10-26T09:02:51;12.90;99.90
43338;DHT22;28933;52.492;13.434;2022-10-26T09:11:33;13.10;99.90
43338;DHT22;28933;52.492;13.434;2022-10-26T09:14:09;13.20;99.90
43338;DHT22;28933;52.492;13.434;2022-10-26T09:16:56;13.20;99.90
43338;DHT22;28933;52.492;13.434;2022-10-26T09:25:21;13.50;99.90
43338;DHT22;28933;52.492;13.434;2022-10-26T09:27:50;13.60;99.90
43338;DHT22;28933;52.492;13.434;2022-10-26T09:30:20;13.50;99.90
43338;DHT22;28933;52.492;13.434;2022-10-26T09:33:03;13.70;99.90
43338;DHT22;28933;52.492;13.434;2022-10-26T09:35:42;13.80;99.90
43338;DHT22;28933;52.492;13.434;2022-10-26T09:38:17;13.90;99.90
43338;DHT22;28933;52.492;13.434;2022-10-26T09:43:43;14.00;99.90
43338;DHT22;28933;52.492;13.434;2022-10-26T09:46:19;14.30;99.90
43338;DHT22;28933;52.492;13.434;2022-10-26T09:48:51;14.40;99.90
43338;DHT22;28933;52.492;13.434;2022-10-26T09:51:18;14.50;99.90
43338;DHT22;28933;52.492;13.434;2022-10-26T09:53:44;14.50;99.90
43338;DHT22;28933;52.492;13.434;2022-10-26T09:56:11;14.60;99.90
43338;DHT22;28933;52.492;13.434;2022-10-26T09:58:55;14.60;99.90
43338;DHT22;28933;52.492;13.434;2022-10-26T10:01:28;14.60;99.90
43338;DHT22;28933;52.492;13.434;2022-10-26T10:06:39;14.70;99.90
43338;DHT22;28933;52.492;13.434;2022-10-26T10:11:48;14.80;99.90
43338;DHT22;28933;52.492;13.434;2022-10-26T10:14:21;14.90;99.90
43338;DHT22;28933;52.492;13.434;2022-10-26T10:16:58;14.90;99.90
43338;DHT22;28933;52.492;13.434;2022-10-26T10:19:29;15.00;99.90
43338;DHT22;28933;52.492;13.434;2022-10-26T10:21:58;15.10;99.90
43338;DHT22;28933;52.492;13.434;2022-10-26T10:24:29;15.20;99.90
43338;DHT22;28933;52.492;13.434;2022-10-26T10:27:00;15.20;99.90
43338;DHT22;28933;52.492;13.434;2022-10-26T10:29:35;15.30;99.90
43338;DHT22;28933;52.492;13.434;2022-10-26T10:32:04;15.30;99.90
43338;DHT22;28933;52.492;13.434;2022-10-26T10:34:30;15.40;99.90
43338;DHT22;28933;52.492;13.434;2022-10-26T10:36:57;15.50;99.90
43338;DHT22;28933;52.492;13.434;2022-10-26T10:39:34;15.50;99.90
43338;DHT22;28933;52.492;13.434;2022-10-26T10:42:02;15.50;99.90
43338;DHT22;28933;52.492;13.434;2022-10-26T10:44:28;15.60;99.90
43338;DHT22;28933;52.492;13.434;2022-10-26T10:47:03;15.60;99.90
43338;DHT22;28933;52.492;13.434;2022-10-26T10:49:30;15.70;99.90
43338;DHT22;28933;52.492;13.434;2022-10-26T10:51:56;15.70;99.90
43338;DHT22;28933;52.492;13.434;2022-10-26T10:57:01;15.90;99.90
43338;DHT22;28933;52.492;13.434;2022-10-26T11:08:11;16.10;99.90
43338;DHT22;28933;52.492;13.434;2022-10-26T11:10:46;16.20;99.90
43338;DHT22;28933;52.492;13.434;2022-10-26T11:13:37;16.20;99.90
43338;DHT22;28933;52.492;13.434;2022-10-26T11:16:09;16.20;99.90
43338;DHT22;28933;52.492;13.434;2022-10-26T11:18:42;16.30;99.90
43338;DHT22;28933;52.492;13.434;2022-10-26T11:27:07;16.40;99.90
43338;DHT22;28933;52.492;13.434;2022-10-26T11:30:00;16.50;99.90
43338;DHT22;28933;52.492;13.434;2022-10-26T11:32:35;16.60;99.90
43338;DHT22;28933;52.492;13.434;2022-10-26T11:35:10;16.60;99.90
43338;DHT22;28933;52.492;13.434;2022-10-26T11:38:00;16.70;99.90
43338;DHT22;28933;52.492;13.434;2022-10-26T11:40:51;16.70;99.90
43338;DHT22;28933;52.492;13.434;2022-10-26T11:48:58;16.80;99.90
43338;DHT22;28933;52.492;13.434;2022-10-26T11:51:42;16.90;99.90
43338;DHT22;28933;52.492;13.434;2022-10-26T11:54:15;16.90;99.90
43338;DHT22;28933;52.492;13.434;2022-10-26T11:56:47;17.00;99.90
43338;DHT22;28933;52.492;13.434;2022-10-26T11:59:19;17.10;99.90
43338;DHT22;28933;52.492;13.434;2022-10-26T12:01:53;17.00;99.90
43338;DHT22;28933;52.492;13.434;2022-10-26T12:04:22;17.20;99.90
43338;DHT22;28933;52.492;13.434;2022-10-26T12:06:53;17.10;99.90
43338;DHT22;28933;52.492;13.434;2022-10-26T12:09:23;17.30;99.90
43338;DHT22;28933;52.492;13.434;2022-10-26T12:12:01;17.30;99.90
43338;DHT22;28933;52.492;13.434;2022-10-26T12:14:45;17.40;99.90
43338;DHT22;28933;52.492;13.434;2022-10-26T12:17:27;17.40;99.90
43338;DHT22;28933;52.492;13.434;2022-10-26T12:22:38;17.40;99.70
43338;DHT22;28933;52.492;13.434;2022-10-26T12:35:28;17.60;99.20
43338;DHT22;28933;52.492;13.434;2022-10-26T12:37:54;17.60;99.20
43338;DHT22;28933;52.492;13.434;2022-10-26T12:40:39;17.60;99.10
43338;DHT22;28933;52.492;13.434;2022-10-26T12:48:47;17.70;98.90
43338;DHT22;28933;52.492;13.434;2022-10-26T12:54:34;17.80;98.80
43338;DHT22;28933;52.492;13.434;2022-10-26T12:57:22;17.80;98.80
43338;DHT22;28933;52.492;13.434;2022-10-26T13:00:02;17.80;98.80
43338;DHT22;28933;52.492;13.434;2022-10-26T13:05:54;17.90;98.80
43338;DHT22;28933;52.492;13.434;2022-10-26T13:08:23;17.90;98.60
43338;DHT22;28933;52.492;13.434;2022-10-26T13:11:04;18.00;98.60
43338;DHT22;28933;52.492;13.434;2022-10-26T13:13:32;18.00;98.50
43338;DHT22;28933;52.492;13.434;2022-10-26T13:15:59;18.10;98.40
43338;DHT22;28933;52.492;13.434;2022-10-26T13:18:26;18.20;98.40
43338;DHT22;28933;52.492;13.434;2022-10-26T13:21:09;18.20;98.40
43338;DHT22;28933;52.492;13.434;2022-10-26T13:23:37;18.20;98.40
43338;DHT22;28933;52.492;13.434;2022-10-26T13:26:09;18.20;98.80
43338;DHT22;28933;52.492;13.434;2022-10-26T13:33:50;18.30;98.30
43338;DHT22;28933;52.492;13.434;2022-10-26T13:39:05;18.40;98.00
43338;DHT22;28933;52.492;13.434;2022-10-26T13:41:37;18.50;98.00
43338;DHT22;28933;52.492;13.434;2022-10-26T13:44:15;18.50;97.90
43338;DHT22;28933;52.492;13.434;2022-10-26T13:46:51;18.60;97.80
43338;DHT22;28933;52.492;13.434;2022-10-26T13:49:22;18.60;97.80
43338;DHT22;28933;52.492;13.434;2022-10-26T13:51:50;18.70;97.70
43338;DHT22;28933;52.492;13.434;2022-10-26T13:54:54;18.80;97.70
43338;DHT22;28933;52.492;13.434;2022-10-26T13:57:45;18.80;97.70
43338;DHT22;28933;52.492;13.434;2022-10-26T14:00:18;18.90;97.70
43338;DHT22;28933;52.492;13.434;2022-10-26T14:02:45;18.90;97.60
43338;DHT22;28933;52.492;13.434;2022-10-26T14:05:13;19.00;97.60
43338;DHT22;28933;52.492;13.434;2022-10-26T14:10:37;19.10;97.40
43338;DHT22;28933;52.492;13.434;2022-10-26T14:13:12;19.10;97.30
43338;DHT22;28933;52.492;13.434;2022-10-26T14:15:42;19.20;97.10
43338;DHT22;28933;52.492;13.434;2022-10-26T14:18:22;19.20;97.10
43338;DHT22;28933;52.492;13.434;2022-10-26T14:21:05;19.20;97.00
43338;DHT22;28933;52.492;13.434;2022-10-26T14:23:44;19.20;96.90
43338;DHT22;28933;52.492;13.434;2022-10-26T14:26:27;19.30;96.80
43338;DHT22;28933;52.492;13.434;2022-10-26T14:28:56;19.30;96.60
43338;DHT22;28933;52.492;13.434;2022-10-26T14:31:27;19.40;96.60
43338;DHT22;28933;52.492;13.434;2022-10-26T14:33:54;19.30;96.50
43338;DHT22;28933;52.492;13.434;2022-10-26T14:36:26;19.40;96.50
43338;DHT22;28933;52.492;13.434;2022-10-26T14:38:57;19.40;96.30
43338;DHT22;28933;52.492;13.434;2022-10-26T14:41:24;19.40;96.30
43338;DHT22;28933;52.492;13.434;2022-10-26T14:43:51;19.40;96.20
43338;DHT22;28933;52.492;13.434;2022-10-26T14:46:19;19.40;96.10
43338;DHT22;28933;52.492;13.434;2022-10-26T14:48:55;19.40;96.10
43338;DHT22;28933;52.492;13.434;2022-10-26T14:51:26;19.30;96.10
43338;DHT22;28933;52.492;13.434;2022-10-26T14:53:55;19.30;96.10
43338;DHT22;28933;52.492;13.434;2022-10-26T14:58:54;19.10;96.20
43338;DHT22;28933;52.492;13.434;2022-10-26T15:03:54;19.00;96.20
43338;DHT22;28933;52.492;13.434;2022-10-26T15:09:02;18.90;96.30
43338;DHT22;28933;52.492;13.434;2022-10-26T15:11:31;18.80;96.30
43338;DHT22;28933;52.492;13.434;2022-10-26T15:13:58;18.80;96.40
43338;DHT22;28933;52.492;13.434;2022-10-26T15:16:32;18.80;96.40
43338;DHT22;28933;52.492;13.434;2022-10-26T15:19:14;18.80;96.40
43338;DHT22;28933;52.492;13.434;2022-10-26T15:21:47;18.80;96.50
43338;DHT22;28933;52.492;13.434;2022-10-26T15:24:29;18.70;96.50
43338;DHT22;28933;52.492;13.434;2022-10-26T15:26:56;18.70;96.50
43338;DHT22;28933;52.492;13.434;2022-10-26T15:29:39;18.70;96.60
43338;DHT22;28933;52.492;13.434;2022-10-26T15:37:35;18.60;96.70
43338;DHT22;28933;52.492;13.434;2022-10-26T15:40:01;18.50;96.70
43338;DHT22;28933;52.492;13.434;2022-10-26T15:42:27;18.50;96.80
43338;DHT22;28933;52.492;13.434;2022-10-26T15:44:54;18.50;96.80
43338;DHT22;28933;52.492;13.434;2022-10-26T15:47:20;18.40;96.90
43338;DHT22;28933;52.492;13.434;2022-10-26T15:49:46;18.40;96.90
43338;DHT22;28933;52.492;13.434;2022-10-26T15:52:14;18.40;97.00
43338;DHT22;28933;52.492;13.434;2022-10-26T15:54:40;18.30;97.10
43338;DHT22;28933;52.492;13.434;2022-10-26T15:57:08;18.30;97.20
43338;DHT22;28933;52.492;13.434;2022-10-26T15:59:36;18.20;97.20
43338;DHT22;28933;52.492;13.434;2022-10-26T16:02:14;18.20;97.30
43338;DHT22;28933;52.492;13.434;2022-10-26T16:04:40;18.10;97.40
43338;DHT22;28933;52.492;13.434;2022-10-26T16:07:15;18.10;97.50
43338;DHT22;28933;52.492;13.434;2022-10-26T16:09:42;18.00;97.50
43338;DHT22;28933;52.492;13.434;2022-10-26T16:12:10;18.00;97.60
43338;DHT22;28933;52.492;13.434;2022-10-26T16:14:36;17.90;97.70
43338;DHT22;28933;52.492;13.434;2022-10-26T16:17:04;17.90;97.70
43338;DHT22;28933;52.492;13.434;2022-10-26T16:19:31;17.90;97.80
43338;DHT22;28933;52.492;13.434;2022-10-26T16:21:57;17.80;97.90
43338;DHT22;28933;52.492;13.434;2022-10-26T16:24:23;17.70;98.00
43338;DHT22;28933;52.492;13.434;2022-10-26T16:26:48;17.70;98.10
43338;DHT22;28933;52.492;13.434;2022-10-26T16:29:14;17.70;98.10
43338;DHT22;28933;52.492;13.434;2022-10-26T16:31:41;17.70;98.20
43338;DHT22;28933;52.492;13.434;2022-10-26T16:34:06;17.60;98.30
43338;DHT22;28933;52.492;13.434;2022-10-26T16:36:32;17.60;98.30
43338;DHT22;28933;52.492;13.434;2022-10-26T16:38:59;17.50;98.40
43338;DHT22;28933;52.492;13.434;2022-10-26T16:41:24;17.50;98.40
43338;DHT22;28933;52.492;13.434;2022-10-26T16:43:50;17.50;98.50
43338;DHT22;28933;52.492;13.434;2022-10-26T16:46:18;17.50;98.60
43338;DHT22;28933;52.492;13.434;2022-10-26T16:48:45;17.50;98.70
43338;DHT22;28933;52.492;13.434;2022-10-26T16:51:25;17.40;98.70
43338;DHT22;28933;52.492;13.434;2022-10-26T16:53:55;17.40;98.70
43338;DHT22;28933;52.492;13.434;2022-10-26T16:56:25;17.40;98.80
43338;DHT22;28933;52.492;13.434;2022-10-26T16:58:51;17.40;98.80
43338;DHT22;28933;52.492;13.434;2022-10-26T17:01:18;17.40;98.90
43338;DHT22;28933;52.492;13.434;2022-10-26T17:03:48;17.40;98.90
43338;DHT22;28933;52.492;13.434;2022-10-26T17:06:14;17.40;99.00
43338;DHT22;28933;52.492;13.434;2022-10-26T17:08:40;17.40;99.00
43338;DHT22;28933;52.492;13.434;2022-10-26T17:13:37;17.30;99.10
43338;DHT22;28933;52.492;13.434;2022-10-26T17:16:12;17.30;99.20
43338;DHT22;28933;52.492;13.434;2022-10-26T17:18:42;17.30;99.30
43338;DHT22;28933;52.492;13.434;2022-10-26T17:21:09;17.30;99.30
43338;DHT22;28933;52.492;13.434;2022-10-26T17:23:36;17.20;99.30
43338;DHT22;28933;52.492;13.434;2022-10-26T17:26:03;17.30;99.30
43338;DHT22;28933;52.492;13.434;2022-10-26T17:28:29;17.20;99.40
43338;DHT22;28933;52.492;13.434;2022-10-26T17:31:21;17.20;99.40
43338;DHT22;28933;52.492;13.434;2022-10-26T17:33:51;17.20;99.40
43338;DHT22;28933;52.492;13.434;2022-10-26T17:36:19;17.20;99.50
43338;DHT22;28933;52.492;13.434;2022-10-26T17:38:49;17.20;99.50